createdAt,value
2022-08-11T00:01:59.522Z,100599.80
2022-08-11T00:04:34.572Z,100601.72
2022-08-11T00:07:07.894Z,100600.86
2022-08-11T00:09:41.942Z,100600.95
2022-08-11T00:12:17.201Z,100598.63
2022-08-11T00:14:52.343Z,100603.27
2022-08-11T00:17:27.354Z,100607.85
2022-08-11T00:20:16.209Z,100607.85
2022-08-11T00:22:48.295Z,100605.39
2022-08-11T00:25:22.731Z,100610.80
2022-08-11T00:27:55.030Z,100609.96
2022-08-11T00:30:28.101Z,100616.33
2022-08-11T00:33:01.115Z,100622.47
2022-08-11T00:35:54.981Z,100611.02
2022-08-11T00:38:08.993Z,100620.97
2022-08-11T00:40:55.845Z,100623.72
2022-08-11T00:43:47.595Z,100616.81
2022-08-11T00:46:32.044Z,100618.63
2022-08-11T00:49:16.097Z,100615.22
2022-08-11T00:52:09.635Z,100622.63
2022-08-11T00:54:56.421Z,100600.61
2022-08-11T00:57:56.899Z,100617.07
2022-08-11T01:00:32.339Z,100615.56
2022-08-11T01:03:32.805Z,100618.41
2022-08-11T01:06:24.317Z,100623.94
2022-08-11T01:09:31.046Z,100628.28
2022-08-11T01:12:39.552Z,100628.47
2022-08-11T01:15:31.323Z,100631.31
2022-08-11T01:18:18.958Z,100630.67
2022-08-11T01:21:18.356Z,100632.67
2022-08-11T01:23:55.881Z,100639.86
2022-08-11T01:26:47.753Z,100649.51
2022-08-11T01:29:55.935Z,100640.63
2022-08-11T01:32:56.941Z,100650.56
2022-08-11T01:35:51.543Z,100644.42
2022-08-11T01:38:49.999Z,100644.58
2022-08-11T01:41:41.403Z,100644.67
2022-08-11T01:44:34.201Z,100642.88
2022-08-11T01:47:53.681Z,100647.32
2022-08-11T01:50:48.080Z,100655.13
2022-08-11T01:53:40.122Z,100656.23
2022-08-11T01:56:27.391Z,100657.09
2022-08-11T01:59:08.154Z,100656.33
2022-08-11T02:01:58.464Z,100659.94
2022-08-11T02:04:39.256Z,100659.94
2022-08-11T02:07:20.202Z,100662.67
2022-08-11T02:10:01.695Z,100661.81
2022-08-11T02:12:40.126Z,100658.23
2022-08-11T02:15:28.768Z,100664.19
2022-08-11T02:18:26.621Z,100667.70
2022-08-11T02:21:19.040Z,100660.48
2022-08-11T02:24:05.508Z,100666.69
2022-08-11T02:26:46.167Z,100676.02
2022-08-11T02:29:26.998Z,100675.84
2022-08-11T02:32:31.110Z,100672.36
2022-08-11T02:35:21.298Z,100671.21
2022-08-11T02:37:59.331Z,100673.65
2022-08-11T02:40:52.231Z,100674.33
2022-08-11T02:43:30.374Z,100675.83
2022-08-11T02:46:23.855Z,100682.42
2022-08-11T02:49:19.700Z,100679.48
2022-08-11T02:52:10.447Z,100686.11
2022-08-11T02:54:54.832Z,100683.91
2022-08-11T02:57:47.772Z,100680.84
2022-08-11T03:00:20.751Z,100690.21
2022-08-11T03:03:18.884Z,100685.45
2022-08-11T03:06:08.754Z,100694.18
2022-08-11T03:09:00.738Z,100685.80
2022-08-11T03:11:59.537Z,100698.59
2022-08-11T03:14:52.149Z,100699.22
2022-08-11T03:17:49.805Z,100697.02
2022-08-11T03:20:38.394Z,100703.73
2022-08-11T03:23:28.840Z,100703.34
2022-08-11T03:26:20.403Z,100706.66
2022-08-11T03:29:10.212Z,100711.64
2022-08-11T03:31:51.182Z,100710.58
2022-08-11T03:34:26.305Z,100707.63
2022-08-11T03:37:38.740Z,100712.52
2022-08-11T03:40:53.990Z,100712.98
2022-08-11T03:43:45.622Z,100716.17
2022-08-11T03:46:18.500Z,100715.73
2022-08-11T03:49:00.742Z,100718.92
2022-08-11T03:51:44.758Z,100723.84
2022-08-11T03:54:24.328Z,100724.37
2022-08-11T03:57:05.074Z,100732.67
2022-08-11T04:00:11.285Z,100723.32
2022-08-11T04:02:57.856Z,100723.64
2022-08-11T04:05:52.588Z,100720.44
2022-08-11T04:08:34.319Z,100718.20
2022-08-11T04:11:15.818Z,100715.88
2022-08-11T04:14:42.282Z,100705.76
2022-08-11T04:17:33.816Z,100702.99
2022-08-11T04:20:41.986Z,100712.87
2022-08-11T04:24:35.146Z,100703.70
2022-08-11T04:26:00.882Z,100702.31
2022-08-11T04:28:52.875Z,100706.45
2022-08-11T04:31:59.458Z,100704.20
2022-08-11T04:34:49.371Z,100709.92
2022-08-11T04:37:34.987Z,100708.63
2022-08-11T04:40:33.679Z,100702.23
2022-08-11T04:43:27.168Z,100698.17
2022-08-11T04:46:19.312Z,100713.78
2022-08-11T04:49:34.191Z,100716.52
2022-08-11T04:52:41.005Z,100710.86
2022-08-11T04:56:07.799Z,100715.31
2022-08-11T04:59:29.090Z,100713.55
2022-08-11T05:02:25.026Z,100712.52
2022-08-11T05:05:31.535Z,100709.03
2022-08-11T05:08:24.825Z,100712.45
2022-08-11T05:11:27.341Z,100708.20
2022-08-11T05:14:37.982Z,100715.16
2022-08-11T05:17:34.012Z,100721.26
2022-08-11T05:20:26.883Z,100717.63
2022-08-11T05:23:19.783Z,100718.74
2022-08-11T05:26:46.314Z,100706.62
2022-08-11T05:29:20.201Z,100722.38
2022-08-11T05:32:04.300Z,100722.02
2022-08-11T05:34:54.995Z,100724.06
2022-08-11T05:38:02.823Z,100718.22
2022-08-11T05:40:53.235Z,100720.17
2022-08-11T05:44:21.392Z,100720.56
2022-08-11T05:46:38.536Z,100714.22
2022-08-11T05:49:29.771Z,100715.27
2022-08-11T05:52:31.645Z,100719.15
2022-08-11T05:55:17.675Z,100713.04
2022-08-11T05:57:52.000Z,100718.60
2022-08-11T06:00:24.537Z,100715.80
2022-08-11T06:03:01.381Z,100723.02
2022-08-11T06:05:38.191Z,100712.69
2022-08-11T06:08:12.971Z,100711.33
2022-08-11T06:10:48.192Z,100714.46
2022-08-11T06:13:23.529Z,100700.63
2022-08-11T06:15:58.337Z,100710.16
2022-08-11T06:18:31.673Z,100703.60
2022-08-11T06:21:05.994Z,100716.37
2022-08-11T06:23:41.093Z,100705.28
2022-08-11T06:26:17.767Z,100700.69
2022-08-11T06:28:51.481Z,100702.45
2022-08-11T06:31:24.557Z,100702.02
2022-08-11T06:34:27.707Z,100706.11
2022-08-11T06:36:55.945Z,100710.90
2022-08-11T06:39:37.427Z,100706.84
2022-08-11T06:42:12.575Z,100705.88
2022-08-11T06:45:08.612Z,100703.03
2022-08-11T06:47:49.000Z,100706.27
2022-08-11T06:50:41.321Z,100700.76
2022-08-11T06:53:19.427Z,100705.23
2022-08-11T06:56:02.428Z,100707.20
2022-08-11T06:58:56.364Z,100707.01
2022-08-11T07:01:51.615Z,100710.74
2022-08-11T07:04:30.028Z,100714.34
2022-08-11T07:07:49.919Z,100715.14
2022-08-11T07:11:01.281Z,100713.23
2022-08-11T07:13:54.277Z,100717.80
2022-08-11T07:16:31.755Z,100719.63
2022-08-11T07:19:23.965Z,100711.76
2022-08-11T07:22:17.370Z,100705.99
2022-08-11T07:25:09.820Z,100702.73
2022-08-11T07:28:08.587Z,100709.73
2022-08-11T07:30:43.852Z,100704.11
2022-08-11T07:34:05.503Z,100707.08
2022-08-11T07:35:57.219Z,100712.45
2022-08-11T07:38:36.709Z,100708.52
2022-08-11T07:41:11.720Z,100703.42
2022-08-11T07:43:48.599Z,100701.85
2022-08-11T07:46:40.392Z,100703.79
2022-08-11T07:49:30.916Z,100702.64
2022-08-11T07:52:23.045Z,100698.27
2022-08-11T07:54:58.560Z,100701.00
2022-08-11T07:58:14.766Z,100693.86
2022-08-11T08:00:45.345Z,100700.39
2022-08-11T08:03:38.000Z,100712.77
2022-08-11T08:06:36.060Z,100704.38
2022-08-11T08:09:22.364Z,100700.14
2022-08-11T08:12:14.048Z,100705.77
2022-08-11T08:15:04.050Z,100702.73
2022-08-11T08:18:09.597Z,100697.97
2022-08-11T08:20:29.455Z,100692.80
2022-08-11T08:23:04.652Z,100703.72
2022-08-11T08:25:39.714Z,100702.78
2022-08-11T08:28:14.293Z,100700.69
2022-08-11T08:30:50.891Z,100686.47
2022-08-11T08:33:25.518Z,100703.05
2022-08-11T08:36:12.538Z,100698.34
2022-08-11T08:38:54.466Z,100694.69
2022-08-11T08:41:32.853Z,100687.41
2022-08-11T08:44:36.677Z,100689.14
2022-08-11T08:46:52.869Z,100689.14
2022-08-11T08:49:40.362Z,100686.74
2022-08-11T08:52:25.323Z,100684.92
2022-08-11T08:54:50.666Z,100690.36
2022-08-11T08:57:25.127Z,100687.09
2022-08-11T08:59:59.846Z,100683.94
2022-08-11T09:02:35.116Z,100690.33
2022-08-11T09:05:10.691Z,100687.44
2022-08-11T09:07:45.644Z,100674.91
2022-08-11T09:10:21.015Z,100676.44
2022-08-11T09:12:56.178Z,100673.20
2022-08-11T09:15:29.322Z,100671.27
2022-08-11T09:18:06.337Z,100673.30
2022-08-11T09:20:41.244Z,100673.64
2022-08-11T09:26:31.001Z,100676.50
2022-08-11T09:29:02.365Z,100667.95
2022-08-11T09:31:39.594Z,100668.80
2022-08-11T09:34:12.014Z,100659.23
2022-08-11T09:37:04.826Z,100659.61
2022-08-11T09:39:57.959Z,100664.37
2022-08-11T09:42:49.724Z,100658.62
2022-08-11T09:45:22.681Z,100673.33
2022-08-11T09:47:56.097Z,100664.34
2022-08-11T09:50:28.961Z,100660.94
2022-08-11T09:53:36.475Z,100661.88
2022-08-11T09:55:39.487Z,100660.23
2022-08-11T09:58:42.417Z,100658.82
2022-08-11T10:00:51.061Z,100652.51
2022-08-11T10:03:26.639Z,100651.23
2022-08-11T10:06:19.466Z,100651.13
2022-08-11T10:08:54.638Z,100658.95
2022-08-11T10:11:28.775Z,100659.20
2022-08-11T10:14:33.664Z,100650.19
2022-08-11T10:16:53.827Z,100659.68
2022-08-11T10:19:26.929Z,100638.95
2022-08-11T10:22:17.157Z,100652.03
2022-08-11T10:25:07.421Z,100644.08
2022-08-11T10:28:17.123Z,100650.70
2022-08-11T10:30:36.804Z,100636.92
2022-08-11T10:33:37.755Z,100647.68
2022-08-11T10:36:01.690Z,100641.70
2022-08-11T10:38:35.331Z,100643.45
2022-08-11T10:41:25.647Z,100647.16
2022-08-11T10:44:01.621Z,100637.37
2022-08-11T10:46:50.743Z,100638.01
2022-08-11T10:49:27.290Z,100640.00
2022-08-11T10:52:18.472Z,100640.30
2022-08-11T10:55:08.856Z,100642.01
2022-08-11T10:58:04.805Z,100642.01
2022-08-11T11:00:32.704Z,100626.31
2022-08-11T11:03:23.608Z,100627.52
2022-08-11T11:06:12.896Z,100619.44
2022-08-11T11:08:38.986Z,100618.59
2022-08-11T11:11:18.223Z,100621.47
2022-08-11T11:14:07.201Z,100617.42
2022-08-11T11:16:52.838Z,100614.07
2022-08-11T11:19:27.593Z,100615.91
2022-08-11T11:22:02.208Z,100608.50
2022-08-11T11:24:41.351Z,100602.08
2022-08-11T11:27:28.511Z,100608.33
2022-08-11T11:30:09.335Z,100607.98
2022-08-11T11:32:49.429Z,100596.87
2022-08-11T11:35:36.513Z,100591.84
2022-08-11T11:38:13.869Z,100590.22
2022-08-11T11:40:44.973Z,100597.78
2022-08-11T11:43:19.624Z,100589.98
2022-08-11T11:45:53.712Z,100586.34
2022-08-11T11:48:28.073Z,100582.86
2022-08-11T11:51:01.632Z,100583.80
2022-08-11T11:53:34.176Z,100588.73
2022-08-11T11:56:06.800Z,100588.16
2022-08-11T11:58:52.160Z,100592.81
2022-08-11T12:01:25.810Z,100574.54
2022-08-11T12:03:59.779Z,100579.63
2022-08-11T12:06:33.915Z,100575.28
2022-08-11T12:09:08.599Z,100570.34
2022-08-11T12:11:59.103Z,100562.69
2022-08-11T12:14:32.071Z,100561.80
2022-08-11T12:17:04.830Z,100566.92
2022-08-11T12:19:37.160Z,100565.91
2022-08-11T12:22:28.170Z,100558.58
2022-08-11T12:25:19.344Z,100565.03
2022-08-11T12:27:53.349Z,100565.47
2022-08-11T12:30:26.641Z,100564.25
2022-08-11T12:32:59.647Z,100562.27
2022-08-11T12:35:34.672Z,100560.74
2022-08-11T12:38:12.658Z,100545.42
2022-08-11T12:41:18.038Z,100556.69
2022-08-11T12:43:56.855Z,100547.56
2022-08-11T12:46:32.024Z,100550.69
2022-08-11T12:49:23.976Z,100545.05
2022-08-11T12:52:11.622Z,100547.78
2022-08-11T12:54:38.573Z,100554.44
2022-08-11T12:57:41.472Z,100545.30
2022-08-11T13:00:32.728Z,100552.65
2022-08-11T13:03:24.949Z,100551.46
2022-08-11T13:06:00.140Z,100540.67
2022-08-11T13:08:35.786Z,100545.09
2022-08-11T13:11:55.663Z,100549.27
2022-08-11T13:14:00.596Z,100543.10
2022-08-11T13:16:53.481Z,100540.35
2022-08-11T13:19:26.774Z,100530.70
2022-08-11T13:22:01.125Z,100530.70
2022-08-11T13:24:36.618Z,100536.63
2022-08-11T13:27:09.241Z,100535.07
2022-08-11T13:29:43.516Z,100535.37
2022-08-11T13:32:25.460Z,100532.13
2022-08-11T13:34:57.835Z,100534.97
2022-08-11T13:38:27.365Z,100533.56
2022-08-11T13:40:04.527Z,100535.91
2022-08-11T13:42:37.808Z,100520.83
2022-08-11T13:45:10.788Z,100517.38
2022-08-11T13:47:46.209Z,100514.78
2022-08-11T13:50:19.472Z,100489.70
2022-08-11T13:52:53.334Z,100517.10
2022-08-11T13:55:45.087Z,100522.67
2022-08-11T13:58:19.167Z,100513.86
2022-08-11T14:00:35.412Z,100506.56
2022-08-11T14:03:13.178Z,100508.19
2022-08-11T14:05:52.286Z,100503.37
2022-08-11T14:08:36.991Z,100498.67
2022-08-11T14:12:22.792Z,100510.84
2022-08-11T14:13:58.958Z,100512.91
2022-08-11T14:16:33.664Z,100501.64
2022-08-11T14:19:10.357Z,100499.27
2022-08-11T14:22:07.637Z,100492.91
2022-08-11T14:24:41.480Z,100501.94
2022-08-11T14:28:16.066Z,100501.08
2022-08-11T14:29:49.399Z,100497.19
2022-08-11T14:32:22.832Z,100478.48
2022-08-11T14:34:58.872Z,100480.09
2022-08-11T14:37:33.153Z,100478.09
2022-08-11T14:40:10.925Z,100475.09
2022-08-11T14:43:01.846Z,100473.45
2022-08-11T14:45:58.714Z,100467.63
2022-08-11T14:48:29.350Z,100468.38
2022-08-11T14:51:01.636Z,100472.48
2022-08-11T14:53:34.565Z,100470.67
2022-08-11T14:56:25.021Z,100462.29
2022-08-11T14:58:57.523Z,100460.35
2022-08-11T15:01:47.300Z,100467.48
2022-08-11T15:04:34.054Z,100465.37
2022-08-11T15:06:57.044Z,100460.98
2022-08-11T15:09:29.703Z,100456.91
2022-08-11T15:12:32.386Z,100452.12
2022-08-11T15:15:05.423Z,100465.59
2022-08-11T15:17:43.663Z,100464.89
2022-08-11T15:20:35.217Z,100467.44
2022-08-11T15:23:24.993Z,100469.04
2022-08-11T15:26:15.093Z,100472.70
2022-08-11T15:29:08.459Z,100477.58
2022-08-11T15:32:00.377Z,100470.84
2022-08-11T15:34:50.379Z,100479.05
2022-08-11T15:37:29.696Z,100479.12
2022-08-11T15:40:33.216Z,100482.17
2022-08-11T15:43:34.413Z,100486.30
2022-08-11T15:46:11.221Z,100476.62
2022-08-11T15:48:48.596Z,100481.62
2022-08-11T15:51:32.542Z,100485.46
2022-08-11T15:54:15.439Z,100478.33
2022-08-11T15:56:50.500Z,100480.08
2022-08-11T15:59:43.957Z,100478.95
2022-08-11T16:02:38.470Z,100480.70
2022-08-11T16:05:13.738Z,100476.69
2022-08-11T16:07:49.890Z,100481.05
2022-08-11T16:10:22.950Z,100483.91
2022-08-11T16:13:07.392Z,100476.52
2022-08-11T16:16:06.401Z,100485.77
2022-08-11T16:18:41.977Z,100481.84
2022-08-11T16:21:33.673Z,100478.95
2022-08-11T16:23:54.103Z,100478.75
2022-08-11T16:27:08.678Z,100477.37
2022-08-11T16:29:05.564Z,100483.73
2022-08-11T16:31:39.849Z,100479.30
2022-08-11T16:34:15.668Z,100472.20
2022-08-11T16:37:06.812Z,100475.02
2022-08-11T16:39:41.032Z,100477.13
2022-08-11T16:43:04.634Z,100479.11
2022-08-11T16:45:25.069Z,100480.07
2022-08-11T16:48:02.524Z,100484.17
2022-08-11T16:50:31.892Z,100479.72
2022-08-11T16:53:05.019Z,100478.66
2022-08-11T16:55:52.677Z,100476.91
2022-08-11T16:58:24.541Z,100487.45
2022-08-11T17:00:59.126Z,100487.38
2022-08-11T17:03:51.550Z,100490.00
2022-08-11T17:06:42.629Z,100493.47
2022-08-11T17:09:36.089Z,100496.08
2022-08-11T17:12:18.901Z,100492.28
2022-08-11T17:14:58.206Z,100497.57
2022-08-11T17:17:33.547Z,100503.53
2022-08-11T17:20:42.731Z,100502.77
2022-08-11T17:23:03.175Z,100504.36
2022-08-11T17:26:03.623Z,100499.23
2022-08-11T17:28:11.631Z,100498.28
2022-08-11T17:31:02.369Z,100502.69
2022-08-11T17:33:54.886Z,100507.81
2022-08-11T17:36:27.390Z,100504.31
2022-08-11T17:39:00.275Z,100509.56
2022-08-11T17:41:52.238Z,100509.31
2022-08-11T17:44:44.638Z,100510.20
2022-08-11T17:47:36.181Z,100512.77
2022-08-11T17:50:16.948Z,100508.11
2022-08-11T17:53:03.673Z,100511.67
2022-08-11T17:55:56.091Z,100505.22
2022-08-11T17:58:49.005Z,100525.41
2022-08-11T18:01:23.292Z,100525.23
2022-08-11T18:03:58.638Z,100529.47
2022-08-11T18:09:29.099Z,100531.47
2022-08-11T18:12:21.486Z,100529.75
2022-08-11T18:15:14.566Z,100527.66
2022-08-11T18:18:04.828Z,100529.61
2022-08-11T18:20:56.009Z,100535.55
2022-08-11T18:23:47.263Z,100544.16
2022-08-11T18:26:39.758Z,100547.80
2022-08-11T18:29:32.569Z,100546.12
2022-08-11T18:32:33.875Z,100546.52
2022-08-11T18:35:18.515Z,100552.31
2022-08-11T18:38:10.228Z,100545.81
2022-08-11T18:41:01.762Z,100547.08
2022-08-11T18:43:55.243Z,100550.88
2022-08-11T18:46:47.298Z,100551.15
2022-08-11T18:50:02.619Z,100548.15
2022-08-11T18:52:38.503Z,100555.06
2022-08-11T18:55:31.850Z,100560.68
2022-08-11T18:58:24.947Z,100559.39
2022-08-11T19:01:17.348Z,100552.75
2022-08-11T19:04:11.283Z,100558.53
2022-08-11T19:07:04.526Z,100570.48
2022-08-11T19:09:56.910Z,100556.25
2022-08-11T19:12:52.500Z,100559.32
2022-08-11T19:15:44.034Z,100561.17
2022-08-11T19:18:36.381Z,100563.97
2022-08-11T19:21:28.356Z,100568.20
2022-08-11T19:24:21.213Z,100570.75
2022-08-11T19:27:12.042Z,100569.89
2022-08-11T19:30:13.036Z,100564.97
2022-08-11T19:32:54.758Z,100573.25
2022-08-11T19:35:48.027Z,100567.59
2022-08-11T19:38:39.677Z,100572.95
2022-08-11T19:41:57.185Z,100568.84
2022-08-11T19:44:22.744Z,100576.14
2022-08-11T19:47:13.800Z,100577.86
2022-08-11T19:50:04.248Z,100568.41
2022-08-11T19:52:57.624Z,100574.02
2022-08-11T19:55:48.331Z,100581.18
2022-08-11T19:58:38.939Z,100578.80
2022-08-11T20:01:28.940Z,100572.27
2022-08-11T20:04:18.490Z,100580.39
2022-08-11T20:07:09.592Z,100581.51
2022-08-11T20:10:06.445Z,100578.23
2022-08-11T20:12:56.523Z,100585.55
2022-08-11T20:15:47.032Z,100578.52
2022-08-11T20:18:38.274Z,100583.13
2022-08-11T20:21:31.134Z,100582.44
2022-08-11T20:24:21.384Z,100593.64
2022-08-11T20:27:24.245Z,100596.44
2022-08-11T20:30:04.569Z,100589.66
2022-08-11T20:32:56.482Z,100591.88
2022-08-11T20:35:46.675Z,100597.09
2022-08-11T20:38:38.227Z,100594.30
2022-08-11T20:41:30.595Z,100591.75
2022-08-11T20:44:21.147Z,100591.17
2022-08-11T20:47:13.155Z,100590.73
2022-08-11T20:50:05.334Z,100595.59
2022-08-11T20:52:55.389Z,100599.77
2022-08-11T20:55:52.749Z,100596.91
2022-08-11T21:01:38.912Z,100591.72
2022-08-11T21:04:23.061Z,100597.80
2022-08-11T21:07:23.485Z,100594.39
2022-08-11T21:10:10.182Z,100603.78
2022-08-11T21:16:01.280Z,100602.25
2022-08-11T21:18:47.401Z,100606.97
2022-08-11T21:21:45.891Z,100611.02
2022-08-11T21:24:32.170Z,100608.70
2022-08-11T21:27:24.936Z,100604.70
2022-08-11T21:30:17.202Z,100607.14
2022-08-11T21:33:07.239Z,100611.27
2022-08-11T21:35:57.444Z,100617.11
2022-08-11T21:38:48.496Z,100618.45
2022-08-11T21:41:39.072Z,100619.55
2022-08-11T21:44:29.276Z,100626.95
2022-08-11T21:47:21.462Z,100629.27
2022-08-11T21:50:11.154Z,100634.20
2022-08-11T21:53:00.962Z,100627.53
2022-08-11T21:55:50.810Z,100629.45
2022-08-11T21:58:41.765Z,100625.32
2022-08-11T22:01:34.621Z,100630.54
2022-08-11T22:04:25.777Z,100635.98
2022-08-11T22:07:16.037Z,100640.61
2022-08-11T22:10:28.027Z,100636.37
2022-08-11T22:12:57.620Z,100636.48
2022-08-11T22:15:47.179Z,100641.93
2022-08-11T22:18:36.493Z,100638.78
2022-08-11T22:21:59.562Z,100636.45
2022-08-11T22:24:30.167Z,100642.02
2022-08-11T22:27:12.221Z,100637.78
2022-08-11T22:30:01.608Z,100638.75
2022-08-11T22:32:51.633Z,100636.20
2022-08-11T22:35:42.312Z,100639.24
2022-08-11T22:38:33.824Z,100641.50
2022-08-11T22:41:25.228Z,100647.91
2022-08-11T22:44:15.277Z,100651.89
2022-08-11T22:47:05.129Z,100649.12
2022-08-11T22:49:58.144Z,100636.16
2022-08-11T22:52:49.421Z,100649.82
2022-08-11T22:55:40.897Z,100665.20
2022-08-11T22:58:30.965Z,100659.38
2022-08-11T23:01:20.875Z,100663.09
2022-08-11T23:04:12.761Z,100666.23
2022-08-11T23:07:04.938Z,100660.12
2022-08-11T23:09:56.300Z,100655.88
2022-08-11T23:12:47.557Z,100667.61
2022-08-11T23:15:39.219Z,100654.66
2022-08-11T23:18:29.572Z,100654.02
2022-08-11T23:21:20.580Z,100653.41
2022-08-11T23:24:10.589Z,100658.34
2022-08-11T23:27:01.833Z,100659.42
2022-08-11T23:29:54.061Z,100665.93
2022-08-11T23:32:45.801Z,100671.80
2022-08-11T23:35:39.617Z,100670.89
2022-08-11T23:38:28.653Z,100663.98
2022-08-11T23:41:18.940Z,100666.03
2022-08-11T23:44:09.180Z,100678.58
2022-08-11T23:46:59.666Z,100674.44
2022-08-11T23:49:50.746Z,100671.98
2022-08-11T23:52:42.000Z,100676.59
2022-08-11T23:55:31.786Z,100676.80
2022-08-11T23:58:21.580Z,100679.70
